KCHD/CHD METAR and TAF weather

Enter ICAO airport designator
Station Type Date Time Source
KCHD METAR 2020/04/06 14:47 UTC NOAA

KCHD 061447Z 00000KT 10SM CLR 15/01 A2993


Station Type Date Time Source
KCHD Decoded METAR 2020/04/06 14:47 UTC NOAA

Chandler, Chandler Municipal Airport, AZ, United States (KCHD) 33-16-09N 111-48-40W
Apr 06, 2020 - 10:47 AM EDT / 2020.04.06 1447 UTC
Wind: Calm:0
Visibility: 10 mile(s):0
Sky conditions: clear
Temperature: 59 F (15 C)
Dew Point: 33 F (1 C)
Relative Humidity: 38%
Pressure (altimeter): 29.93 in. Hg (1013 hPa)
ob: KCHD 061447Z 00000KT 10SM CLR 15/01 A2993
cycle: 15

Station Type Date Time Source
KCHD TAF UTC NOAA

Error!

Example: see airport list